Cacak, Serbia
Current Conditions -  °F | °C
As of 12:00 PM on Wednesday 26 Nov 2014 (Local Time) from LYKV Reporting Station
Scattered Clouds Scattered Clouds  
Wind Chill:   Ceiling: Unl
Heat Index:   Visibility: 4mi
Dew Point:   Wind: 8mph
Humidity: 76%   Direction: 160°SSE
Pressure: 30.24"   Gusts: NA
Location:  43.9°N, 20.33°E
Report Text: LYKV 261000Z 16007KT 120V200 6000 SCT030 05/01 Q1024 NOSIG
Loading
Personal Weather Stations






























Interactive Weather Map New forecast layout! Learn more

10-Day Weather Forecast

Advertisements
Track Severe Weather on mobile